Informes METAR cercanos


LEVC - Manises, Valencia, ESPAÑA
Distance from station: NNE 72km
Actualización: 11/04/2021 22:30
Parcialmente nuboso
Parcialmente nuboso
 Viento del ENE
Viento: ENE 11 km/h
Temperatura: 15°C
Rocío: 12°C
Humedad: 82%
Barómetro: 1018 hPa
Clouds: Parcialmente nuboso
Visibility: 10 km
Cloud details: Algunas nubes 762 m
Parcialmente nuboso 1829 m
2021/04/11 20:30 LEVC 112030Z 06006KT 020V100 9999 FEW025TCU SCT060 15/12 Q1018 TEMPO 4000 TSRA FEW025CB
LEAL - El Altet, Alicante, ESPAÑA
Distance from station: S 70km
Actualización: 11/04/2021 22:30
Despejado
Despejado
 Viento del NE
Viento: NE 4 km/h
Temperatura: 16°C
Rocío: 15°C
Humedad: 94%
Barómetro: 1016 hPa
Resumen: Despejado
Visibility: Mas de 10 km
2021/04/11 20:30 LEAL 112030Z 04002KT CAVOK 16/15 Q1016 NOSIG
 
LELC - San Javier, Murcia, ESPAÑA
Distance from station: SSO 188km
Actualización: 11/04/2021 22:30
Parcialmente nuboso
Parcialmente nuboso
 Viento del O
Viento: O 6 km/h
Temperatura: 16°C
Rocío: 16°C
Humedad: 100%
Barómetro: 1016 hPa
Clouds: Parcialmente nuboso
Visibility: 8 km
2021/04/11 20:30 LELC 112030Z 26003KT 8000 NSC 16/16 Q1016 NOSIG
LEAB - Los Llanos, Albacete, ESPAÑA
Distance from station: O 143km
Actualización: 11/04/2021 22:30
Algunas nubes
Algunas nubes
 Viento del NNO
Viento: NNO 7 km/h
Temperatura: 11°C
Rocío: 9°C
Humedad: 88%
Barómetro: 1019 hPa
Clouds: Algunas nubes
Visibility: 10 km
Cloud details: Algunas nubes 914 m
2021/04/11 20:30 LEAB 112030Z 34004KT 310V030 9999 FEW030 11/09 Q1019 NOSIG